Thunder radar more information blitzortung!


Radar de pluja more information rain snow radar


Visita la nostra xarxa de llocs de meteo:

Template documentation
and downloads

And another site



No particular awareness of the weather is required.    There are no Weather-warnings

Pagina Historial Weather Underground text

Diari Resum Abril 29, 2016 Unitats:  Mètric    Imperial   Tant
« Previous Dia
SegĂźent Dia »
Diari Setmana Mensual Anual Personalitzada
  Maxima: Minima: Media:
Temperatura: -17.8 °C -13.2 °C -9.8 °C
Punt de rosada: -17.8 °C -14.4 °C -13.4 °C
Humitat: Humidity % 47 % 66 %
Wind Speed: 0 km/h 0 km/h 11.3 km/h
RĂ fegues de vent: 0 km/h - -
Vent:- - SSW
Pression baro: 0 hPa 34428.8 hPa -
Precipitacions: 0 mm    
Historical Graphs
 
 
Dades de taula per Abril 29, 2016
Temps Temperatura Punt de rosada Pression baro Vent Wind Speed RĂ fegues de vent Humitat Rainfall Rate (Hourly)
-17.8 °C -17.8 °C 0 hPa Calm     Humidity % 0 mm
00:03 -11.8 °C -13.4 °C 34462.7 hPa WSW 3.7 km/h 3.7 km/h 82 % 0 mm
00:05 -12.7 °C -14 °C 34462.7 hPa Calm     85 % 0 mm
00:08 -11.9 °C -13.5 °C 34462.7 hPa West 6 km/h 6 km/h 82 % 0 mm
00:13 -11.9 °C -13.5 °C 34462.7 hPa WSW 6 km/h 6 km/h 82 % 0 mm
00:15 -12.7 °C -14.1 °C 34496.6 hPa Calm     85 % 0 mm
00:25 -12.7 °C -14.1 °C 34496.6 hPa Calm     85 % 0 mm
00:35 -12.9 °C -14.3 °C 34496.6 hPa West 5.1 km/h 5.1 km/h 84 % 0 mm
00:45 -13 °C -14.3 °C 34496.6 hPa Calm   5.1 km/h 85 % 0 mm
00:55 -13.1 °C -14.4 °C 34496.6 hPa WSW 2.6 km/h 5.1 km/h 85 % 0 mm
01:05 -13.1 °C -14.3 °C 34496.6 hPa Calm   2.6 km/h 86 % 0 mm
01:15 -13.1 °C -14.2 °C 34496.6 hPa Calm     87 % 0 mm
01:25 -13 °C -14.1 °C 34496.6 hPa Calm     87 % 0 mm
01:35 -13.2 °C -14.4 °C 34496.6 hPa Calm   5.1 km/h 86 % 0 mm
01:45 -13.1 °C -14.3 °C 34496.6 hPa WSW 2.6 km/h 5.1 km/h 86 % 0 mm
01:55 -13 °C -14.1 °C 34496.6 hPa Calm     87 % 0 mm
02:05 -12.9 °C -14.2 °C 34496.6 hPa Calm   5.1 km/h 86 % 0 mm
02:15 -12.8 °C -14.1 °C 34496.6 hPa Calm   5.1 km/h 86 % 0 mm
02:25 -12.7 °C -13.9 °C 34496.6 hPa Calm   2.6 km/h 86 % 0 mm
02:35 -12.7 °C -13.8 °C 34496.6 hPa Calm     87 % 0 mm
02:45 -12.7 °C -13.9 °C 34496.6 hPa Calm   2.6 km/h 86 % 0 mm
02:55 -12.7 °C -13.9 °C 34496.6 hPa West 2.6 km/h 5.1 km/h 86 % 0 mm
03:05 -12.7 °C -13.9 °C 34533.8 hPa WSW 5.1 km/h 5.1 km/h 86 % 0 mm
03:35 -12.3 °C -13.7 °C 34533.8 hPa SW 5.1 km/h 5.1 km/h 85 % 0 mm
03:45 -12.1 °C -13.4 °C 34533.8 hPa Calm   5.1 km/h 86 % 0 mm
03:55 -11.8 °C -13.1 °C 34533.8 hPa SW 2.6 km/h 5.1 km/h 85 % 0 mm
04:05 -11.1 °C -12.5 °C 34533.8 hPa South 5.1 km/h 7.7 km/h 84 % 0 mm
04:15 -10.9 °C -12.6 °C 34533.8 hPa Calm   5.1 km/h 82 % 0 mm
04:25 -11 °C -12.7 °C 34533.8 hPa ESE 2.6 km/h 2.6 km/h 82 % 0 mm
04:35 -11.1 °C -12.9 °C 34533.8 hPa South 5.1 km/h 7.7 km/h 81 % 0 mm
04:45 -11.1 °C -13 °C 34533.8 hPa SSW 2.6 km/h 10.3 km/h 79 % 0 mm
04:55 -11.1 °C -12.9 °C 34533.8 hPa South 2.6 km/h 5.1 km/h 80 % 0 mm
05:05 -11 °C -12.9 °C 34567.7 hPa Calm   5.1 km/h 79 % 0 mm
05:15 -10.7 °C -12.7 °C 34567.7 hPa East 2.6 km/h 7.7 km/h 79 % 0 mm
05:25 -10.5 °C -12.6 °C 34567.7 hPa ENE 7.7 km/h 10.3 km/h 78 % 0 mm
05:35 -10.1 °C -12.3 °C 34567.7 hPa ENE 7.7 km/h 10.3 km/h 77 % 0 mm
05:45 -9.6 °C -11.9 °C 34567.7 hPa ENE 2.6 km/h 7.7 km/h 76 % 0 mm
10:52 -9.6 °C -12 °C 34567.7 hPa West 9 km/h 9 km/h 75 % 0 mm
10:57 -9.4 °C -12.1 °C 34533.8 hPa NNE 3.1 km/h 3.1 km/h 73 % 0 mm
11:02 -9.2 °C -11.9 °C 34533.8 hPa NE 11.9 km/h 11.9 km/h 73 % 0 mm
11:07 -9 °C -11.8 °C 34533.8 hPa ESE 11.9 km/h 11.9 km/h 72 % 0 mm
11:12 -9.1 °C -12.1 °C 34567.7 hPa East 11.9 km/h 11.9 km/h 70 % 0 mm
11:17 -9.2 °C -12.1 °C 34567.7 hPa SW 6 km/h 8.5 km/h 71 % 0 mm
11:22 -9.1 °C -12.1 °C 34567.7 hPa ESE 15 km/h 15 km/h 70 % 0 mm
11:32 -8.7 °C -11.6 °C 34533.8 hPa South 6 km/h 6 km/h 71 % 0 mm
11:37 -8.6 °C -11.7 °C 34533.8 hPa East 6 km/h 6 km/h 69 % 0 mm
11:42 -8.6 °C -11.8 °C 34533.8 hPa South 5.6 km/h 5.6 km/h 68 % 0 mm
11:47 -8.7 °C -12.7 °C 34533.8 hPa SSE 17.9 km/h 17.9 km/h 63 % 0 mm
11:52 -8.6 °C -12.3 °C 34533.8 hPa ESE 8 km/h 8 km/h 64 % 0 mm
11:57 -8.6 °C -12.5 °C 34533.8 hPa SW 9.3 km/h 9.3 km/h 63 % 0 mm
12:02 -8.4 °C -12.7 °C 34533.8 hPa WSW 17.9 km/h 17.9 km/h 61 % 0 mm
12:07 -8.2 °C -12.6 °C 34533.8 hPa WSW 11.9 km/h 11.9 km/h 60 % 0 mm
12:12 -8.3 °C -12.6 °C 34533.8 hPa ESE 11.9 km/h 11.9 km/h 60 % 0 mm
12:17 -8.2 °C -12.9 °C 34533.8 hPa SSE 14 km/h 14 km/h 58 % 0 mm
12:22 -8 °C -12.7 °C 34533.8 hPa SW 11.9 km/h 11.9 km/h 58 % 0 mm
12:27 -7.6 °C -12.4 °C 34533.8 hPa ENE 17.9 km/h 17.9 km/h 57 % 0 mm
12:32 -7.7 °C -12.4 °C 34533.8 hPa WSW 12.7 km/h 12.7 km/h 58 % 0 mm
12:37 -7.6 °C -12.4 °C 34533.8 hPa SSE 9 km/h 9 km/h 57 % 0 mm
12:42 -7.9 °C -12.7 °C 34533.8 hPa SSE 9 km/h 9 km/h 57 % 0 mm
12:47 -7.6 °C -12.4 °C 34533.8 hPa SSE 12.2 km/h 12.2 km/h 57 % 0 mm
12:52 -7.8 °C -12.6 °C 34533.8 hPa SSW 15 km/h 15 km/h 57 % 0 mm
12:57 -7.9 °C -12.9 °C 34496.6 hPa SSE 11.9 km/h 11.9 km/h 56 % 0 mm
13:02 -7.8 °C -12.6 °C 34496.6 hPa SSW 12.7 km/h 12.7 km/h 57 % 0 mm
13:07 -8 °C -12.7 °C 34496.6 hPa SE 11.1 km/h 11.1 km/h 58 % 0 mm
13:12 -8.1 °C -12.7 °C 34533.8 hPa ESE 20.9 km/h 20.9 km/h 58 % 0 mm
13:17 -8 °C -12.7 °C 34533.8 hPa East 20.9 km/h 20.9 km/h 58 % 0 mm
13:22 -8.2 °C -12.8 °C 34533.8 hPa SW 15 km/h 15 km/h 58 % 0 mm
13:27 -7.8 °C -12.6 °C 34533.8 hPa ESE 11.9 km/h 11.9 km/h 57 % 0 mm
13:32 -7.8 °C -12.4 °C 34533.8 hPa West 9 km/h 9 km/h 58 % 0 mm
13:37 -7.6 °C -12.4 °C 34533.8 hPa WSW 9 km/h 9 km/h 57 % 0 mm
13:42 -7.5 °C -12.4 °C 34533.8 hPa SW 20.9 km/h 20.9 km/h 56 % 0 mm
13:47 -7.4 °C -12.6 °C 34533.8 hPa SW 11.9 km/h 11.9 km/h 55 % 0 mm
13:52 -7.6 °C -12.7 °C 34533.8 hPa WSW 14.5 km/h 14.5 km/h 55 % 0 mm
13:57 -7.8 °C -13 °C 34496.6 hPa SSW 9 km/h 9 km/h 54 % 0 mm
14:02 -7.6 °C -12.7 °C 34496.6 hPa SW 9.3 km/h 9.3 km/h 55 % 0 mm
14:07 -7.6 °C -12.9 °C 34496.6 hPa ESE 11.9 km/h 11.9 km/h 53 % 0 mm
14:12 -7.6 °C -12.7 °C 34496.6 hPa South 6 km/h 6 km/h 55 % 0 mm
14:17 -7.3 °C -12.6 °C 34496.6 hPa SW 15 km/h 15 km/h 54 % 0 mm
14:22 -7.1 °C -12.9 °C 34496.6 hPa SSE 15 km/h 15 km/h 51 % 0 mm
14:32 -7.2 °C -12.9 °C 34496.6 hPa SSW 23.8 km/h 23.8 km/h 51 % 0 mm
14:37 -7 °C -12.8 °C 34496.6 hPa West 20.9 km/h 20.9 km/h 51 % 0 mm
14:42 -6.9 °C -12.7 °C 34496.6 hPa WNW 11.9 km/h 11.9 km/h 51 % 0 mm
14:47 -7.2 °C -13.3 °C 34496.6 hPa SW 17.9 km/h 17.9 km/h 49 % 0 mm
14:52 -7.3 °C -13 °C 34496.6 hPa SW 15 km/h 15 km/h 51 % 0 mm
14:57 -7.1 °C -13.1 °C 34496.6 hPa WSW 14.5 km/h 14.5 km/h 50 % 0 mm
15:02 -6.8 °C -12.7 °C 34496.6 hPa SW 11.9 km/h 11.9 km/h 50 % 0 mm
15:07 -6.8 °C -12.7 °C 34496.6 hPa SSW 17.9 km/h 17.9 km/h 50 % 0 mm
15:12 -6.9 °C -13.2 °C 34496.6 hPa SSW 17.9 km/h 17.9 km/h 48 % 0 mm
15:17 -7.1 °C -13.4 °C 34496.6 hPa SW 20.9 km/h 20.9 km/h 48 % 0 mm
15:22 -6.8 °C -13.1 °C 34496.6 hPa SW 17.9 km/h 17.9 km/h 48 % 0 mm
15:27 -6.9 °C -13.2 °C 34496.6 hPa WSW 32.8 km/h 32.8 km/h 48 % 0 mm
15:32 -6.8 °C -13.1 °C 34496.6 hPa WSW 23.8 km/h 23.8 km/h 48 % 0 mm
15:37 -7.1 °C -13.3 °C 34496.6 hPa SSW 17.9 km/h 17.9 km/h 48 % 0 mm
15:42 -7 °C -13.3 °C 34496.6 hPa WSW 11.9 km/h 11.9 km/h 48 % 0 mm
15:47 -6.9 °C -13.2 °C 34496.6 hPa SSE 11.9 km/h 11.9 km/h 48 % 0 mm
15:52 -6.8 °C -13.1 °C 34496.6 hPa SW 17.9 km/h 17.9 km/h 48 % 0 mm
16:02 -7 °C -13.3 °C 34496.6 hPa South 20.9 km/h 20.9 km/h 48 % 0 mm
16:07 -6.8 °C -13.1 °C 34496.6 hPa SSW 23.8 km/h 23.8 km/h 48 % 0 mm
16:12 -6.8 °C -13.1 °C 34496.6 hPa SW 15 km/h 15 km/h 48 % 0 mm
16:17 -6.8 °C -13.1 °C 34496.6 hPa SW 23.8 km/h 23.8 km/h 48 % 0 mm
16:22 -6.9 °C -13.2 °C 34496.6 hPa SSW 17.9 km/h 17.9 km/h 48 % 0 mm
16:27 -7.2 °C -13.6 °C 34496.6 hPa WSW 22 km/h 22 km/h 47 % 0 mm
16:32 -7.3 °C -13.5 °C 34496.6 hPa West 20.9 km/h 20.9 km/h 48 % 0 mm
16:38 -7.3 °C -13.6 °C 34496.6 hPa West 27.2 km/h 27.2 km/h 48 % 0 mm
16:43 -7.6 °C -13.8 °C 34496.6 hPa SW 20.9 km/h 20.9 km/h 48 % 0 mm
16:48 -7.4 °C -13.7 °C 34496.6 hPa SSW 20.9 km/h 20.9 km/h 48 % 0 mm
16:53 -7.3 °C -13.8 °C 34496.6 hPa SSW 32.8 km/h 32.8 km/h 47 % 0 mm
16:58 -7.6 °C -13.9 °C 34496.6 hPa SSW 29.8 km/h 29.8 km/h 47 % 0 mm
17:03 -7.7 °C -14.1 °C 34496.6 hPa SSW 25.4 km/h 25.4 km/h 47 % 0 mm
17:08 -7.7 °C -14.1 °C 34496.6 hPa WSW 35.7 km/h 35.7 km/h 47 % 0 mm
17:13 -7.8 °C -14.2 °C 34496.6 hPa South 26.9 km/h 26.9 km/h 47 % 0 mm
17:18 -7.9 °C -14.3 °C 34496.6 hPa SW 23.8 km/h 23.8 km/h 47 % 0 mm
17:23 -7.9 °C -14.3 °C 34496.6 hPa SSW 23.8 km/h 23.8 km/h 47 % 0 mm
17:28 -7.9 °C -14.1 °C 34496.6 hPa SSW 23.8 km/h 23.8 km/h 48 % 0 mm
17:33 -8 °C -14.2 °C 34496.6 hPa SW 23.8 km/h 23.8 km/h 48 % 0 mm
17:38 -8.3 °C -14.4 °C 34496.6 hPa SSW 35.7 km/h 35.7 km/h 48 % 0 mm
17:43 -8.4 °C -14.1 °C 34496.6 hPa SSW 26.9 km/h 26.9 km/h 51 % 0 mm
17:48 -8.4 °C -14.1 °C 34496.6 hPa SW 17.9 km/h 17.9 km/h 51 % 0 mm
17:53 -8.6 °C -14.1 °C 34496.6 hPa WSW 26.9 km/h 26.9 km/h 52 % 0 mm
17:58 -8.5 °C -14 °C 34496.6 hPa West 26.9 km/h 26.9 km/h 52 % 0 mm
18:03 -8.5 °C -13.8 °C 34496.6 hPa South 29.8 km/h 29.8 km/h 53 % 0 mm
18:08 -8.6 °C -13.9 °C 34496.6 hPa SW 29.8 km/h 29.8 km/h 53 % 0 mm
18:13 -8.6 °C -13.8 °C 34496.6 hPa WSW 26.9 km/h 26.9 km/h 54 % 0 mm
18:18 -8.8 °C -13.9 °C 34496.6 hPa SW 26.9 km/h 26.9 km/h 54 % 0 mm
18:23 -8.8 °C -13.8 °C 34496.6 hPa WSW 15 km/h 15 km/h 55 % 0 mm
18:28 -8.9 °C -13.8 °C 34462.7 hPa SSW 26.9 km/h 26.9 km/h 56 % 0 mm
18:33 -9 °C -13.8 °C 34462.7 hPa South 20.9 km/h 20.9 km/h 56 % 0 mm
18:38 -8.9 °C -13.8 °C 34462.7 hPa SW 15.6 km/h 15.6 km/h 56 % 0 mm
18:43 -9.1 °C -13.9 °C 34496.6 hPa SW 20.9 km/h 20.9 km/h 56 % 0 mm
18:48 -9 °C -13.7 °C 34496.6 hPa SSW 11.9 km/h 11.9 km/h 57 % 0 mm
18:53 -9 °C -13.7 °C 34496.6 hPa SW 20.9 km/h 20.9 km/h 57 % 0 mm
18:58 -9 °C -13.6 °C 34496.6 hPa SW 20.9 km/h 20.9 km/h 58 % 0 mm
19:03 -9.1 °C -13.7 °C 34496.6 hPa WSW 20.9 km/h 20.9 km/h 58 % 0 mm
19:13 -9.2 °C -13.7 °C 34462.7 hPa WSW 35.7 km/h 35.7 km/h 59 % 0 mm
19:15 -11.3 °C -13.6 °C 34496.6 hPa West 2.6 km/h 5.1 km/h 76 % 0 mm
19:18 -9.3 °C -13.6 °C 34462.7 hPa SSW 20.9 km/h 20.9 km/h 60 % 0 mm
19:23 -9.4 °C -13.7 °C 34462.7 hPa SSE 32.8 km/h 32.8 km/h 60 % 0 mm
19:25 -11.3 °C -13.7 °C 34496.6 hPa Calm     75 % 0 mm
19:28 -9.4 °C -13.6 °C 34462.7 hPa South 17.9 km/h 17.9 km/h 61 % 0 mm
19:33 -9.4 °C -13.6 °C 34462.7 hPa West 29.8 km/h 29.8 km/h 61 % 0 mm
19:35 -11.3 °C -13.6 °C 34496.6 hPa Calm     76 % 0 mm
19:38 -9.4 °C -13.6 °C 34462.7 hPa West 23.8 km/h 23.8 km/h 61 % 0 mm
19:43 -9.6 °C -13.7 °C 34462.7 hPa SSW 20.9 km/h 20.9 km/h 61 % 0 mm
19:45 -11.3 °C -13.6 °C 34496.6 hPa Calm     76 % 0 mm
19:48 -9.6 °C -13.6 °C 34462.7 hPa SSW 20.9 km/h 20.9 km/h 62 % 0 mm
19:53 -9.7 °C -13.6 °C 34462.7 hPa SW 15 km/h 15 km/h 63 % 0 mm
19:55 -11.4 °C -13.6 °C 34496.6 hPa Calm     77 % 0 mm
19:58 -9.7 °C -13.6 °C 34462.7 hPa SW 15 km/h 15 km/h 63 % 0 mm
20:03 -9.8 °C -13.6 °C 34462.7 hPa WSW 29.8 km/h 29.8 km/h 64 % 0 mm
20:05 -11.4 °C -13.6 °C 34496.6 hPa Calm     77 % 0 mm
20:08 -9.9 °C -13.7 °C 34462.7 hPa SW 26.9 km/h 26.9 km/h 64 % 0 mm
20:13 -10 °C -13.6 °C 34496.6 hPa SSW 15 km/h 15 km/h 65 % 0 mm
20:15 -11.5 °C -13.7 °C 34496.6 hPa Calm     77 % 0 mm
20:18 -10.1 °C -13.5 °C 34496.6 hPa SW 20.9 km/h 20.9 km/h 66 % 0 mm
20:23 -10.1 °C -13.6 °C 34496.6 hPa SW 15 km/h 15 km/h 66 % 0 mm
20:25 -11.4 °C -13.7 °C 34496.6 hPa SW 2.6 km/h 5.1 km/h 76 % 0 mm
20:28 -10.2 °C -13.7 °C 34496.6 hPa SW 28.2 km/h 28.2 km/h 66 % 0 mm
20:33 -10.2 °C -13.7 °C 34496.6 hPa WSW 23.8 km/h 23.8 km/h 66 % 0 mm
20:35 -11.5 °C -13.8 °C 34496.6 hPa Calm   2.6 km/h 76 % 0 mm
20:38 -10.2 °C -13.7 °C 34496.6 hPa SSW 23.8 km/h 23.8 km/h 66 % 0 mm
20:43 -10.3 °C -13.6 °C 34496.6 hPa SW 20.9 km/h 20.9 km/h 67 % 0 mm
20:45 -11.6 °C -13.8 °C 34496.6 hPa Calm   5.1 km/h 77 % 0 mm
20:48 -10.3 °C -13.6 °C 34496.6 hPa WSW 23.8 km/h 23.8 km/h 67 % 0 mm
20:53 -10.3 °C -13.7 °C 34496.6 hPa WSW 15 km/h 15 km/h 67 % 0 mm
20:55 -11.7 °C -13.8 °C 34496.6 hPa Calm   5.1 km/h 77 % 0 mm
20:58 -10.4 °C -13.6 °C 34496.6 hPa West 11.9 km/h 11.9 km/h 68 % 0 mm
21:03 -10.4 °C -13.6 °C 34496.6 hPa SSW 15 km/h 15 km/h 68 % 0 mm
21:05 -11.8 °C -13.9 °C 34496.6 hPa SW 5.1 km/h 5.1 km/h 77 % 0 mm
21:08 -10.4 °C -13.7 °C 34496.6 hPa SSW 15 km/h 15 km/h 68 % 0 mm
21:13 -10.5 °C -13.6 °C 34496.6 hPa SSW 17.9 km/h 17.9 km/h 69 % 0 mm
21:15 -11.8 °C -13.8 °C 34496.6 hPa SW 2.6 km/h 7.7 km/h 78 % 0 mm
21:18 -10.6 °C -13.7 °C 34496.6 hPa West 9 km/h 9 km/h 69 % 0 mm
21:23 -10.6 °C -13.7 °C 34496.6 hPa WSW 15 km/h 15 km/h 69 % 0 mm
21:25 -11.8 °C -13.9 °C 34496.6 hPa SW 5.1 km/h 5.1 km/h 78 % 0 mm
21:28 -10.6 °C -13.7 °C 34496.6 hPa SW 3.7 km/h   69 % 0 mm
21:33 -10.7 °C -13.7 °C 34496.6 hPa SW 6 km/h 6 km/h 69 % 0 mm
21:35 -11.8 °C -13.8 °C 34496.6 hPa SW 2.6 km/h 5.1 km/h 79 % 0 mm
21:38 -10.7 °C -13.8 °C 34496.6 hPa WSW 6 km/h   69 % 0 mm
21:43 -10.8 °C -13.7 °C 34496.6 hPa SW 3.1 km/h   70 % 0 mm
21:45 -11.8 °C -13.7 °C 34462.7 hPa Calm   2.6 km/h 79 % 0 mm
21:48 -10.8 °C -13.8 °C 34496.6 hPa SW 6 km/h 6.3 km/h 69 % 0 mm
21:53 -10.8 °C -13.8 °C 34496.6 hPa WSW 6 km/h 6 km/h 70 % 0 mm
21:55 -11.8 °C -13.6 °C 34462.7 hPa Calm   2.6 km/h 80 % 0 mm
21:58 -10.9 °C -13.8 °C 34533.8 hPa SW 5.6 km/h 5.6 km/h 70 % 0 mm
22:05 -11.7 °C -13.6 °C 34428.8 hPa NNW 2.6 km/h 2.6 km/h 80 % 0 mm
22:08 -10.9 °C -13.7 °C 34533.8 hPa WSW 3.1 km/h 3.1 km/h 71 % 0 mm
22:13 -10.9 °C -13.7 °C 34496.6 hPa Calm     72 % 0 mm
22:15 -11.9 °C -13.7 °C 34462.7 hPa ENE 2.6 km/h 5.1 km/h 80 % 0 mm
22:18 -11 °C -13.7 °C 34496.6 hPa Calm     72 % 0 mm
22:23 -11 °C -13.7 °C 34496.6 hPa Calm     72 % 0 mm
22:25 -11.9 °C -13.9 °C 34462.7 hPa NE 2.6 km/h 5.1 km/h 79 % 0 mm
22:33 -11.1 °C -13.7 °C 34496.6 hPa Calm     73 % 0 mm
22:35 -11.9 °C -13.9 °C 34428.8 hPa Calm   2.6 km/h 79 % 0 mm
22:38 -11.1 °C -13.7 °C 34496.6 hPa Calm     73 % 0 mm
22:43 -11.2 °C -13.8 °C 34496.6 hPa Calm     73 % 0 mm
22:45 -11.9 °C -13.9 °C 34462.7 hPa Calm     79 % 0 mm
22:48 -11.2 °C -13.7 °C 34496.6 hPa Calm     74 % 0 mm
22:53 -11.2 °C -13.7 °C 34496.6 hPa Calm     74 % 0 mm
22:55 -11.9 °C -13.8 °C 34462.7 hPa Calm   2.6 km/h 79 % 0 mm
22:58 -11.2 °C -13.7 °C 34533.8 hPa WNW 3.1 km/h   74 % 0 mm
23:03 -11.2 °C -13.7 °C 34533.8 hPa WSW 6 km/h   74 % 0 mm
23:05 -11.9 °C -13.8 °C 34462.7 hPa Calm     79 % 0 mm
23:09 -11.2 °C -13.7 °C 34533.8 hPa WSW 4.2 km/h   74 % 0 mm
23:14 -11.2 °C -13.7 °C 34533.8 hPa WSW 3.1 km/h   74 % 0 mm
23:15 -11.8 °C -13.8 °C 34462.7 hPa Calm     79 % 0 mm
23:19 -11.2 °C -13.6 °C 34533.8 hPa Calm     75 % 0 mm
23:24 -11.2 °C -13.6 °C 34533.8 hPa Calm     75 % 0 mm
23:25 -11.8 °C -13.8 °C 34462.7 hPa Calm   2.6 km/h 79 % 0 mm
23:29 -11.3 °C -13.7 °C 34496.6 hPa Calm     75 % 0 mm
23:34 -11.3 °C -13.7 °C 34496.6 hPa Calm     75 % 0 mm
23:35 -11.9 °C -13.8 °C 34462.7 hPa Calm   2.6 km/h 79 % 0 mm
23:44 -11.3 °C -13.7 °C 34496.6 hPa West 3.1 km/h 3.1 km/h 75 % 0 mm
23:45 -11.9 °C -13.9 °C 34462.7 hPa Calm     79 % 0 mm
23:49 -11.3 °C -13.7 °C 34496.6 hPa WSW 5.1 km/h 5.1 km/h 75 % 0 mm
23:54 -11.2 °C -13.6 °C 34496.6 hPa WSW 6 km/h 6 km/h 75 % 0 mm
23:55 -11.9 °C -13.7 °C 34462.7 hPa Calm     80 % 0 mm
23:59 -11.2 °C -13.6 °C 34496.6 hPa West 6 km/h 6 km/h 75 % 0 mm
Meteo Sesrovires
Elogis d' Weather Underground - 4 mb

Guio original per  Jim McMurry - jmcmurry@mwt.net Adaptat per a la plantilla per  Wim van der Kuil - Leuven-Template.eu

Trobareu la nostra informacio del temps tambe a:

Weather Underground

AWEKAS